Time;durP1;ratioP1;P1;durP2;ratioP2;P2;SDS_P1;SDS_P2;PMS_P1;PMS_P2;Temp;Humidity;BMP_temperature;BMP_pressure;BME280_temperature;BME280_humidity;BME280_pressure;Samples;Min_cycle;Max_cycle;Signal;HPM_P1;HPM_P2
2023/03/11 00:01:02;;;;;;;14.65;7.93;;;;;;;-0.32;100.00;99160.63;5051287;28;20083;-73
2023/03/11 00:03:27;;;;;;;11.55;6.55;;;;;;;-0.33;100.00;99161.63;5053193;28;20025;-72
2023/03/11 00:05:54;;;;;;;13.57;6.60;;;;;;;-0.41;100.00;99176.34;5051931;28;20467;-72
2023/03/11 00:08:23;;;;;;;17.00;7.95;;;;;;;-0.46;100.00;99187.22;5034402;28;20549;-72
2023/03/11 00:10:54;;;;;;;12.68;6.45;;;;;;;-0.39;100.00;99205.88;5051599;28;20043;-72
2023/03/11 00:13:20;;;;;;;14.27;7.03;;;;;;;-0.40;100.00;99227.81;5041355;28;20029;-73
2023/03/11 00:15:47;;;;;;;14.27;7.35;;;;;;;-0.38;100.00;99236.38;5051255;28;20532;-73
2023/03/11 00:18:13;;;;;;;13.00;7.45;;;;;;;-0.37;100.00;99243.31;5051544;28;20371;-72
2023/03/11 00:20:42;;;;;;;11.35;6.88;;;;;;;-0.36;100.00;99255.44;5051139;28;20036;-72
2023/03/11 00:23:08;;;;;;;17.15;8.85;;;;;;;-0.44;100.00;99258.72;5047097;28;20037;-72
2023/03/11 00:25:36;;;;;;;13.55;7.40;;;;;;;-0.41;100.00;99268.94;5047287;28;20032;-73
2023/03/11 00:28:03;;;;;;;13.05;6.82;;;;;;;-0.38;100.00;99279.16;5051944;28;20037;-71
2023/03/11 00:30:28;;;;;;;16.27;7.50;;;;;;;-0.32;100.00;99283.06;5034479;28;20107;-73
2023/03/11 00:32:56;;;;;;;16.00;6.70;;;;;;;-0.30;100.00;99275.91;5050792;28;20468;-73
2023/03/11 00:35:24;;;;;;;12.30;6.13;;;;;;;-0.33;100.00;99263.03;5051119;28;20036;-73
2023/03/11 00:37:53;;;;;;;12.45;6.57;;;;;;;-0.32;100.00;99262.09;5051975;28;20041;-72
2023/03/11 00:40:19;;;;;;;12.52;5.85;;;;;;;-0.27;100.00;99254.66;5051469;28;20032;-72
2023/03/11 00:42:45;;;;;;;12.75;6.28;;;;;;;-0.30;100.00;99237.41;5051002;28;20048;-72
2023/03/11 00:45:11;;;;;;;10.73;5.93;;;;;;;-0.36;100.00;99229.22;5056375;28;20079;-73
2023/03/11 00:47:37;;;;;;;10.70;6.53;;;;;;;-0.38;100.00;99225.88;5051926;28;20027;-73
2023/03/11 00:50:03;;;;;;;15.23;7.00;;;;;;;-0.42;100.00;99233.19;5033395;28;20033;-72
2023/03/11 00:52:28;;;;;;;;;;;;;;;-0.30;100.00;99239.19;5051367;28;20035;-73
2023/03/11 00:54:54;;;;;;;12.32;6.28;;;;;;;-0.38;100.00;99231.13;5050024;28;19917;-73
2023/03/11 00:57:20;;;;;;;14.75;6.78;;;;;;;-0.51;100.00;99232.16;5034274;28;20032;-72
2023/03/11 00:59:45;;;;;;;14.68;7.35;;;;;;;-0.49;100.00;99239.91;5032855;28;20047;-73
2023/03/11 01:02:11;;;;;;;16.65;8.10;;;;;;;-0.52;100.00;99248.03;5051874;28;20374;-73
2023/03/11 01:04:36;;;;;;;11.07;6.30;;;;;;;-0.52;100.00;99254.09;5050659;28;20041;-72
2023/03/11 01:07:01;;;;;;;17.40;7.18;;;;;;;-0.54;100.00;99253.41;5050209;28;20048;-72
2023/03/11 01:09:27;;;;;;;14.05;7.75;;;;;;;-0.50;100.00;99272.31;5051251;28;20028;-72
2023/03/11 01:11:53;;;;;;;13.60;7.85;;;;;;;-0.59;100.00;99266.06;5050288;28;20102;-72
2023/03/11 01:14:18;;;;;;;17.25;8.07;;;;;;;-0.58;100.00;99270.34;5050931;28;20036;-72
2023/03/11 01:16:43;;;;;;;14.98;7.03;;;;;;;-0.54;100.00;99281.41;5050279;28;20543;-72
2023/03/11 01:19:09;;;;;;;13.60;7.70;;;;;;;-0.63;100.00;99283.00;5049921;28;20082;-72
2023/03/11 01:21:34;;;;;;;11.55;6.35;;;;;;;-0.57;100.00;99289.53;5050145;28;20028;-72
2023/03/11 01:23:59;;;;;;;16.13;7.53;;;;;;;-0.56;100.00;99296.41;5050037;28;20106;-72
2023/03/11 01:26:25;;;;;;;15.82;7.15;;;;;;;-0.61;100.00;99302.03;5050223;28;20323;-72
2023/03/11 01:28:54;;;;;;;15.88;8.07;;;;;;;-0.61;100.00;99314.31;5049222;28;20055;-71
2023/03/11 01:31:19;;;;;;;14.10;7.63;;;;;;;-0.65;100.00;99316.38;5050296;28;20355;-72
2023/03/11 01:33:45;;;;;;;16.17;9.25;;;;;;;-0.55;100.00;99330.38;5050099;28;20382;-72
2023/03/11 01:36:10;;;;;;;14.18;8.48;;;;;;;-0.61;100.00;99324.81;5050112;28;20039;-70
2023/03/11 01:38:36;;;;;;;18.33;8.32;;;;;;;-0.54;100.00;99347.78;5065986;28;20080;-72
2023/03/11 01:41:02;;;;;;;16.55;8.52;;;;;;;-0.55;100.00;99347.91;5049654;28;20045;-73
2023/03/11 01:43:54;;;;;;;;;;;;;;;-0.60;100.00;99350.91;5033912;28;20028;-72
2023/03/11 01:46:25;;;;;;;16.83;8.63;;;;;;;-0.71;100.00;99356.19;5049454;28;20334;-72
2023/03/11 01:48:52;;;;;;;41.28;9.57;;;;;;;-0.73;100.00;99368.56;5049098;28;20567;-71
2023/03/11 01:51:24;;;;;;;18.98;9.63;;;;;;;-0.67;100.00;99379.41;5049626;28;20475;-72
2023/03/11 01:53:51;;;;;;;18.40;8.32;;;;;;;-0.68;100.00;99387.38;5049238;28;20036;-72
2023/03/11 01:56:18;;;;;;;14.98;8.95;;;;;;;-0.67;100.00;99395.13;5049774;28;20070;-72
2023/03/11 01:58:48;;;;;;;18.55;9.82;;;;;;;-0.64;100.00;99399.28;5048714;28;20121;-73
2023/03/11 02:01:15;;;;;;;20.02;9.20;;;;;;;-0.69;100.00;99415.38;5066159;28;20029;-72
2023/03/11 02:03:41;;;;;;;18.60;10.00;;;;;;;-0.68;100.00;99421.44;5046929;28;20037;-73
2023/03/11 02:06:11;;;;;;;20.08;8.82;;;;;;;-0.67;100.00;99428.38;5066378;28;20123;-72
2023/03/11 02:08:38;;;;;;;14.68;8.27;;;;;;;-0.63;100.00;99437.66;5036781;28;20033;-73
2023/03/11 02:11:10;;;;;;;21.73;9.70;;;;;;;-0.66;100.00;99443.13;5048140;28;20021;-73
2023/03/11 02:13:38;;;;;;;18.60;9.38;;;;;;;-0.65;100.00;99444.81;5032328;28;20033;-72
2023/03/11 02:16:04;;;;;;;15.05;8.57;;;;;;;-0.64;100.00;99457.78;5048959;28;20305;-72
2023/03/11 02:18:30;;;;;;;15.98;9.05;;;;;;;-0.69;100.00;99454.72;5048825;28;20029;-71
2023/03/11 02:21:05;;;;;;;19.00;8.95;;;;;;;-0.71;100.00;99461.84;5048736;28;20020;-72
2023/03/11 02:23:47;;;;;;;20.58;9.15;;;;;;;-0.67;100.00;99470.31;5050499;28;20029;-73
2023/03/11 02:26:55;;;;;;;16.10;8.20;;;;;;;-0.56;100.00;99477.31;5045374;28;20040;-72
2023/03/11 02:29:24;;;;;;;20.38;10.20;;;;;;;-0.62;100.00;99481.28;5041883;28;20102;-73
2023/03/11 02:31:49;;;;;;;18.77;9.55;;;;;;;-0.68;100.00;99481.75;5032224;28;20456;-73
2023/03/11 02:34:30;;;;;;;19.85;9.85;;;;;;;-0.72;100.00;99480.34;5046290;28;20021;-72
2023/03/11 02:36:55;;;;;;;23.63;11.23;;;;;;;-0.68;100.00;99492.22;5048476;28;20033;-73
2023/03/11 02:39:37;;;;;;;17.65;9.63;;;;;;;-0.68;100.00;99502.72;5048325;28;20036;-72
2023/03/11 02:42:27;;;;;;;19.13;9.07;;;;;;;-0.68;100.00;99502.72;5048623;28;20521;-73
2023/03/11 02:45:04;;;;;;;23.13;10.75;;;;;;;-0.74;100.00;99508.47;5034314;28;20068;-70
2023/03/11 02:47:32;;;;;;;18.77;10.52;;;;;;;-0.71;100.00;99518.69;5059739;28;20037;-70
2023/03/11 02:49:57;;;;;;;22.67;11.27;;;;;;;-0.80;100.00;99503.69;5030988;28;20029;-72
2023/03/11 02:52:32;;;;;;;24.75;12.80;;;;;;;-0.78;100.00;99517.50;5049906;28;20029;-72
2023/03/11 02:54:58;;;;;;;20.90;12.43;;;;;;;-0.77;100.00;99527.03;5048264;28;20502;-73
2023/03/11 02:57:23;;;;;;;27.05;11.88;;;;;;;-0.76;100.00;99523.47;5048675;28;20303;-73
2023/03/11 02:59:48;;;;;;;25.25;12.85;;;;;;;-0.73;100.00;99525.84;5048721;28;20493;-71
2023/03/11 03:02:14;;;;;;;24.70;13.07;;;;;;;-0.80;100.00;99522.03;5032084;28;20029;-72
2023/03/11 03:04:39;;;;;;;23.25;12.27;;;;;;;-0.88;100.00;99523.47;5031921;28;20068;-73
2023/03/11 03:07:05;;;;;;;27.63;12.60;;;;;;;-0.89;100.00;99520.94;5031783;28;20508;-72
2023/03/11 03:09:31;;;;;;;26.17;12.60;;;;;;;-0.89;100.00;99528.81;5031357;28;20031;-70
2023/03/11 03:11:57;;;;;;;25.73;12.63;;;;;;;-0.85;100.00;99538.13;5031593;28;20110;-72
2023/03/11 03:14:22;;;;;;;21.05;12.35;;;;;;;-0.85;100.00;99536.31;5048126;28;20478;-72
2023/03/11 03:16:48;;;;;;;21.27;12.13;;;;;;;-0.82;100.00;99545.75;5031467;28;20036;-72
2023/03/11 03:19:13;;;;;;;24.48;14.25;;;;;;;-0.89;100.00;99542.78;5047819;28;20500;-72
2023/03/11 03:21:40;;;;;;;25.05;12.95;;;;;;;-0.98;100.00;99546.09;5048253;28;20033;-73
2023/03/11 03:24:05;;;;;;;29.30;14.27;;;;;;;-0.89;100.00;99563.72;5047982;28;20033;-71
2023/03/11 03:26:31;;;;;;;32.15;15.27;;;;;;;-0.92;100.00;99569.19;5048212;28;20111;-73
2023/03/11 03:28:56;;;;;;;30.38;16.10;;;;;;;-0.91;100.00;99575.28;5047246;28;20102;-72
2023/03/11 03:31:22;;;;;;;26.95;14.93;;;;;;;-0.92;100.00;99577.06;5031625;28;20033;-72
2023/03/11 03:33:47;;;;;;;27.48;14.40;;;;;;;-0.85;100.00;99591.34;5049061;28;20040;-72
2023/03/11 03:36:14;;;;;;;29.63;15.32;;;;;;;-0.81;100.00;99597.22;5048402;28;20029;-72
2023/03/11 03:38:47;;;;;;;26.25;13.35;;;;;;;-0.94;100.00;99602.53;5029356;28;20061;-71
2023/03/11 03:41:14;;;;;;;27.20;14.82;;;;;;;-0.93;100.00;99606.84;5048228;28;20060;-73
2023/03/11 03:43:40;;;;;;;25.05;13.82;;;;;;;-0.86;100.00;99615.91;5044473;28;20037;-72
2023/03/11 03:46:06;;;;;;;;;;;;;;;-0.81;100.00;99631.28;5048200;28;20025;-72
2023/03/11 03:48:38;;;;;;;28.52;15.40;;;;;;;-0.90;100.00;99614.47;5064249;28;19913;-70
2023/03/11 03:51:08;;;;;;;31.75;14.93;;;;;;;-0.83;100.00;99619.25;5031469;28;20116;-72
2023/03/11 03:53:35;;;;;;;29.05;14.93;;;;;;;-0.85;100.00;99627.22;5031752;28;20028;-73
2023/03/11 03:56:10;;;;;;;34.22;15.40;;;;;;;-0.87;100.00;99616.00;5030741;28;21479;-72
2023/03/11 03:58:37;;;;;;;34.03;16.23;;;;;;;-0.85;100.00;99612.31;5031087;28;20085;-72
2023/03/11 04:01:03;;;;;;;;;;;;;;;-0.90;100.00;99609.22;5047968;28;20489;-72
2023/03/11 04:03:30;;;;;;;29.50;15.40;;;;;;;-0.90;100.00;99609.22;5052437;28;19916;-73
2023/03/11 04:06:15;;;;;;;28.55;15.63;;;;;;;-0.94;100.00;99606.94;5047686;28;20529;-73
2023/03/11 04:08:41;;;;;;;29.02;15.75;;;;;;;-0.93;100.00;99606.84;5043984;28;20064;-72
2023/03/11 04:11:08;;;;;;;26.67;14.45;;;;;;;-0.97;100.00;99601.94;5038938;28;20094;-73
2023/03/11 04:13:35;;;;;;;30.17;14.38;;;;;;;-0.99;100.00;99594.19;5047338;28;20071;-69
2023/03/11 04:16:05;;;;;;;27.80;14.68;;;;;;;-0.94;100.00;99602.53;5030855;28;20080;-71
2023/03/11 04:18:31;;;;;;;29.42;15.15;;;;;;;-1.02;100.00;99589.19;5030886;28;20048;-72
2023/03/11 04:20:56;;;;;;;26.25;14.05;;;;;;;-1.04;100.00;99585.84;5047456;28;20033;-73
2023/03/11 04:23:22;;;;;;;27.70;14.05;;;;;;;-1.08;100.00;99576.56;5049447;28;20028;-73
2023/03/11 04:25:47;;;;;;;23.70;13.45;;;;;;;-1.28;100.00;99578.06;5047315;28;20033;-72
2023/03/11 04:28:13;;;;;;;33.08;13.50;;;;;;;-1.28;100.00;99583.31;5044359;28;20034;-71
2023/03/11 04:30:39;;;;;;;25.02;13.05;;;;;;;-1.40;100.00;99571.16;5063901;28;20037;-73
2023/03/11 04:33:04;;;;;;;27.70;13.15;;;;;;;-1.46;100.00;99569.81;5047381;28;20037;-73
2023/03/11 04:35:30;;;;;;;25.85;12.45;;;;;;;-1.49;100.00;99570.03;5050944;28;20036;-71
2023/03/11 04:37:55;;;;;;;31.50;13.45;;;;;;;-1.58;100.00;99565.50;5051250;28;20222;-72
2023/03/11 04:40:23;;;;;;;22.55;11.77;;;;;;;-1.62;100.00;99566.66;5050901;28;20029;-72
2023/03/11 04:42:48;;;;;;;23.77;12.30;;;;;;;-1.67;100.00;99571.41;5051085;28;20124;-72
2023/03/11 04:45:17;;;;;;;29.38;12.55;;;;;;;-1.78;100.00;99566.94;5051332;28;20033;-72
2023/03/11 04:47:46;;;;;;;25.15;12.60;;;;;;;-1.70;100.00;99577.69;5034428;28;20402;-73
2023/03/11 04:50:12;;;;;;;24.73;12.15;;;;;;;-1.74;100.00;99573.63;5050653;28;20024;-73
2023/03/11 04:52:38;;;;;;;26.75;12.60;;;;;;;-1.85;100.00;99570.97;5051278;28;20033;-72
2023/03/11 04:55:04;;;;;;;22.88;12.27;;;;;;;-1.81;100.00;99586.31;5051344;28;20037;-72
2023/03/11 04:57:31;;;;;;;25.08;12.57;;;;;;;-1.84;100.00;99590.97;5051404;28;20123;-72
2023/03/11 04:59:57;;;;;;;24.02;12.05;;;;;;;-1.95;100.00;99589.94;5034038;28;20121;-72
2023/03/11 05:02:22;;;;;;;27.77;12.63;;;;;;;-2.00;100.00;99591.22;5051385;28;20128;-72
2023/03/11 05:04:53;;;;;;;21.60;12.48;;;;;;;-1.98;100.00;99603.25;5050655;28;20060;-72
2023/03/11 05:07:18;;;;;;;23.58;11.00;;;;;;;-2.05;100.00;99598.59;5067456;28;20029;-72
2023/03/11 05:09:44;;;;;;;27.33;12.48;;;;;;;-2.06;100.00;99605.59;5033760;28;20033;-72
2023/03/11 05:12:11;;;;;;;25.25;12.27;;;;;;;-2.12;100.00;99598.19;5050808;28;20097;-72
2023/03/11 05:14:37;;;;;;;24.45;12.13;;;;;;;-2.21;100.00;99599.66;5067385;28;20041;-72
2023/03/11 05:17:02;;;;;;;24.23;12.45;;;;;;;-2.17;100.00;99601.13;5050089;28;20079;-70
2023/03/11 05:19:32;;;;;;;25.88;13.00;;;;;;;-2.18;100.00;99603.84;5048579;28;20033;-73
2023/03/11 05:22:03;;;;;;;25.48;12.93;;;;;;;-2.25;100.00;99607.81;5050428;28;20094;-72
2023/03/11 05:24:30;;;;;;;23.70;11.57;;;;;;;-2.29;100.00;99622.91;5034321;28;20120;-72
2023/03/11 05:26:56;;;;;;;;;;;;;;;-2.20;100.00;99635.34;5050817;28;20459;-72
2023/03/11 05:29:22;;;;;;;26.13;12.60;;;;;;;-2.22;100.00;99642.47;5066713;28;19999;-72
2023/03/11 05:31:48;;;;;;;24.10;13.18;;;;;;;-2.26;100.00;99643.59;5050013;28;20032;-72
2023/03/11 05:34:14;;;;;;;26.70;13.98;;;;;;;-2.24;100.00;99657.41;5051650;28;20482;-73
2023/03/11 05:36:40;;;;;;;;;;;;;;;-2.32;100.00;99649.25;5034292;28;20085;-72
2023/03/11 05:39:05;;;;;;;24.27;12.48;;;;;;;-2.37;100.00;99651.34;5049845;28;19912;-72
2023/03/11 05:41:32;;;;;;;24.73;11.98;;;;;;;-2.44;100.00;99656.16;5049399;28;20061;-72
2023/03/11 05:43:58;;;;;;;23.95;12.07;;;;;;;-2.42;100.00;99661.31;5049923;28;20056;-72
2023/03/11 05:46:24;;;;;;;28.67;12.77;;;;;;;-2.45;100.00;99669.38;5049972;28;20442;-72
2023/03/11 05:48:50;;;;;;;24.02;11.52;;;;;;;-2.38;100.00;99681.06;5032948;28;20074;-72
2023/03/11 05:51:16;;;;;;;24.38;11.73;;;;;;;-2.39;100.00;99684.59;5049949;28;20104;-72
2023/03/11 05:53:47;;;;;;;22.35;11.00;;;;;;;-2.37;100.00;99690.56;5049615;28;20041;-72
2023/03/11 05:56:15;;;;;;;22.23;10.60;;;;;;;-2.32;100.00;99698.94;5033686;28;20505;-72
2023/03/11 05:58:41;;;;;;;23.42;11.10;;;;;;;-2.35;100.00;99689.53;5029231;28;20125;-72
2023/03/11 06:01:12;;;;;;;26.40;11.52;;;;;;;-2.41;100.00;99691.72;5032682;28;20025;-72
2023/03/11 06:03:39;;;;;;;24.38;11.70;;;;;;;-2.40;100.00;99688.19;5049811;28;20039;-70
2023/03/11 06:06:06;;;;;;;27.60;12.77;;;;;;;-2.39;100.00;99693.31;5049287;28;20671;-72
2023/03/11 06:08:33;;;;;;;24.65;12.27;;;;;;;-2.52;100.00;99678.56;5033264;28;20037;-69
2023/03/11 06:11:01;;;;;;;21.40;11.75;;;;;;;-2.47;100.00;99685.16;5048329;28;20037;-69
2023/03/11 06:13:27;;;;;;;23.30;11.93;;;;;;;-2.45;100.00;99695.50;5066585;28;20078;-70
2023/03/11 06:15:53;;;;;;;25.42;12.02;;;;;;;-2.45;100.00;99698.94;5049940;28;20033;-70
2023/03/11 06:18:20;;;;;;;26.00;11.77;;;;;;;-2.50;100.00;99690.59;5049580;28;20043;-69
2023/03/11 06:20:45;;;;;;;22.15;11.40;;;;;;;-2.42;100.00;99706.56;5049749;28;20025;-69
2023/03/11 06:23:10;;;;;;;31.73;11.98;;;;;;;-2.39;100.00;99722.06;5049877;28;20478;-69
2023/03/11 06:25:36;;;;;;;29.23;12.25;;;;;;;-2.28;100.00;99723.94;5051050;28;20060;-73
2023/03/11 06:28:02;;;;;;;22.55;11.93;;;;;;;-2.25;100.00;99728.94;5049720;28;20036;-72
2023/03/11 06:30:27;;;;;;;23.20;11.20;;;;;;;-2.29;100.00;99724.88;5049641;28;20035;-70
2023/03/11 06:33:13;;;;;;;25.23;11.90;;;;;;;-2.23;100.00;99732.28;5049494;28;20406;-70
2023/03/11 06:35:40;;;;;;;21.02;11.23;;;;;;;-2.23;100.00;99732.28;5066384;28;20036;-70
2023/03/11 06:38:05;;;;;;;24.55;11.38;;;;;;;-2.31;100.00;99725.94;5049076;28;20021;-70
2023/03/11 06:40:30;;;;;;;22.35;12.18;;;;;;;-2.21;100.00;99745.28;5048642;28;20123;-72
2023/03/11 06:42:56;;;;;;;24.17;11.55;;;;;;;-2.14;100.00;99741.28;5047221;28;20056;-70
2023/03/11 06:45:23;;;;;;;20.58;10.18;;;;;;;-1.68;100.00;99772.09;5047570;28;20056;-70
2023/03/11 06:47:50;;;;;;;22.70;11.25;;;;;;;-1.35;100.00;99781.13;5064174;28;20036;-70
2023/03/11 06:50:16;;;;;;;19.27;9.68;;;;;;;-1.05;100.00;99772.81;5063318;28;20029;-71
2023/03/11 06:52:41;;;;;;;19.20;10.50;;;;;;;-0.57;100.00;99769.28;5048841;28;20037;-70
2023/03/11 06:55:07;;;;;;;19.63;9.60;;;;;;;-0.39;100.00;99738.25;5047348;28;20064;-71
2023/03/11 06:57:33;;;;;;;15.90;8.27;;;;;;;-0.47;100.00;99696.84;5048436;28;20033;-70
2023/03/11 07:00:05;;;;;;;16.63;8.60;;;;;;;-0.25;100.00;99678.50;5048416;28;20071;-71
2023/03/11 07:02:33;;;;;;;15.77;8.82;;;;;;;-0.04;100.00;99656.78;5049177;28;20025;-71
2023/03/11 07:04:58;;;;;;;18.70;8.38;;;;;;;-0.46;100.00;99597.09;5049209;28;20024;-69
2023/03/11 07:07:24;;;;;;;36.97;9.20;;;;;;;-0.65;100.00;99570.66;5049066;28;20052;-70
2023/03/11 07:09:49;;;;;;;22.27;9.65;;;;;;;-0.52;100.00;99568.72;5031491;28;20069;-70
2023/03/11 07:12:15;;;;;;;21.42;9.43;;;;;;;-0.48;100.00;99543.09;5048871;28;20408;-69
2023/03/11 07:14:40;;;;;;;20.02;9.15;;;;;;;-0.16;100.00;99553.66;5045234;28;20025;-69
2023/03/11 07:17:06;;;;;;;19.30;8.93;;;;;;;0.27;100.00;99549.34;5050084;28;20106;-71
2023/03/11 07:19:36;;;;;;;15.40;8.57;;;;;;;0.43;100.00;99528.72;5048734;28;20037;-70
2023/03/11 07:22:01;;;;;;;13.80;7.57;;;;;;;0.08;100.00;99431.91;5050163;28;20807;-71
2023/03/11 07:24:27;;;;;;;17.05;9.35;;;;;;;0.40;100.00;99437.91;5049028;28;20111;-70
2023/03/11 07:26:52;;;;;;;14.90;8.67;;;;;;;0.63;100.00;99427.25;5048711;28;20159;-71
2023/03/11 07:29:19;;;;;;;15.03;7.73;;;;;;;0.32;100.00;99356.34;5049648;28;20283;-72
2023/03/11 07:31:44;;;;;;;14.75;8.23;;;;;;;0.83;100.00;99384.31;5048921;28;20028;-69
2023/03/11 07:34:11;;;;;;;13.88;7.30;;;;;;;0.65;100.00;99308.91;5050062;28;20481;-70
2023/03/11 07:36:39;;;;;;;13.23;7.32;;;;;;;0.95;100.00;99294.88;5049902;28;20051;-70
2023/03/11 07:39:05;;;;;;;14.13;7.57;;;;;;;0.99;100.00;99231.38;5049520;28;20100;-69
2023/03/11 07:41:32;;;;;;;13.63;7.70;;;;;;;1.61;100.00;99245.00;5049968;28;20115;-69
2023/03/11 07:43:59;;;;;;;11.93;6.68;;;;;;;1.30;100.00;99115.53;5049628;28;20036;-69
2023/03/11 07:46:25;;;;;;;15.52;7.35;;;;;;;1.52;100.00;99040.69;5049853;28;20068;-71
2023/03/11 07:48:51;;;;;;;10.90;6.50;;;;;;;1.82;100.00;98963.25;5049465;28;20069;-69
2023/03/11 07:51:18;;;;;;;;;;;;;;;2.10;100.00;98892.91;5048798;28;20027;-70
2023/03/11 07:53:44;;;;;;;12.43;5.80;;;;;;;2.32;100.00;98785.44;5056217;28;19998;-70
2023/03/11 07:56:11;;;;;;;10.45;5.97;;;;;;;2.16;100.00;98659.00;5057248;28;20140;-69
2023/03/11 07:58:37;;;;;;;11.38;6.20;;;;;;;2.33;100.00;98586.94;5048820;28;20046;-72
2023/03/11 08:01:15;;;;;;;10.88;5.57;;;;;;;2.82;100.00;98602.78;5064570;28;20047;-71
2023/03/11 08:03:41;;;;;;;9.35;5.95;;;;;;;2.41;100.00;98388.59;5046006;28;20065;-69
2023/03/11 08:06:19;;;;;;;10.10;5.68;;;;;;;2.50;100.00;98424.47;5049139;28;20040;-71
2023/03/11 08:08:45;;;;;;;11.00;5.38;;;;;;;2.08;100.00;98307.91;5048410;28;20673;-69
2023/03/11 08:11:12;;;;;;;;;;;;;;;3.16;100.00;98472.53;5053582;28;20032;-72
2023/03/11 08:13:38;;;;;;;9.65;4.70;;;;;;;3.65;100.00;98422.16;5052838;28;20274;-70
2023/03/11 08:16:04;;;;;;;;;;;;;;;4.18;100.00;98280.47;5052040;28;20025;-69
2023/03/11 08:18:30;;;;;;;8.00;5.82;;;;;;;4.31;100.00;98094.13;5051945;28;20437;-70
2023/03/11 08:20:56;;;;;;;10.55;4.57;;;;;;;4.43;100.00;97997.53;5047269;28;20128;-70
2023/03/11 08:23:21;;;;;;;8.25;5.03;;;;;;;4.95;100.00;98020.09;5051519;28;20040;-70
2023/03/11 08:25:47;;;;;;;8.60;4.63;;;;;;;5.40;100.00;97861.81;5051870;28;20039;-73
2023/03/11 08:28:12;;;;;;;7.50;4.70;;;;;;;6.19;100.00;97783.47;5056213;28;20038;-71
2023/03/11 08:30:38;;;;;;;8.07;4.57;;;;;;;5.54;100.00;97210.88;5052000;28;20041;-71
2023/03/11 08:33:04;;;;;;;8.02;4.15;;;;;;;4.41;98.92;96919.22;5050597;28;20029;-73
2023/03/11 08:35:30;;;;;;;10.35;4.72;;;;;;;5.23;100.00;97435.50;5050622;28;20426;-73
2023/03/11 08:37:55;;;;;;;5.35;3.72;;;;;;;6.01;98.52;97421.28;5050700;28;20253;-73
2023/03/11 08:40:20;;;;;;;6.67;3.93;;;;;;;5.33;94.32;96958.94;5052023;28;20031;-71
2023/03/11 08:42:46;;;;;;;8.57;4.23;;;;;;;4.92;93.73;96970.97;5050667;28;20123;-71
2023/03/11 08:45:11;;;;;;;7.33;4.10;;;;;;;5.48;93.47;97127.91;5051742;28;20470;-71
2023/03/11 08:47:37;;;;;;;6.70;3.70;;;;;;;4.44;91.13;96670.50;5067374;28;20095;-71
2023/03/11 08:50:05;;;;;;;9.23;4.45;;;;;;;5.17;92.63;97111.06;5051407;28;20449;-75
2023/03/11 08:52:31;;;;;;;6.93;3.60;;;;;;;5.83;91.37;97212.84;5052082;28;20039;-71
2023/03/11 08:54:56;;;;;;;7.67;4.07;;;;;;;7.15;90.01;97368.81;5049979;28;20037;-72
2023/03/11 08:57:21;;;;;;;6.57;3.90;;;;;;;7.36;85.68;96926.22;5052058;28;20528;-71
2023/03/11 08:59:47;;;;;;;6.60;3.83;;;;;;;7.85;84.87;97022.22;5033504;28;20033;-72
2023/03/11 09:02:12;;;;;;;6.13;3.23;;;;;;;7.07;81.09;96432.88;5055046;28;20037;-73
2023/03/11 09:04:37;;;;;;;6.83;3.57;;;;;;;7.13;79.92;96434.53;5051537;28;20592;-72
2023/03/11 09:07:03;;;;;;;5.57;4.00;;;;;;;6.33;78.85;96205.34;5049776;28;20387;-72
2023/03/11 09:09:28;;;;;;;5.00;2.50;;;;;;;7.05;79.25;96519.03;5051022;28;20474;-72
2023/03/11 09:11:53;;;;;;;3.50;2.53;;;;;;;7.31;76.69;96361.81;5051168;28;20343;-71
2023/03/11 09:14:19;;;;;;;5.43;2.63;;;;;;;7.68;76.82;96592.09;5048920;28;20407;-73
2023/03/11 09:16:44;;;;;;;4.77;2.77;;;;;;;8.39;75.94;96708.28;5052441;28;20017;-72
2023/03/11 09:19:09;;;;;;;5.83;2.77;;;;;;;8.45;74.22;96532.69;5051504;28;20028;-73
2023/03/11 09:21:36;;;;;;;3.87;2.30;;;;;;;8.46;72.27;96331.50;5052172;28;20669;-74
2023/03/11 09:24:03;;;;;;;6.03;2.80;;;;;;;8.23;70.11;96093.53;5050835;28;20043;-72
2023/03/11 09:26:30;;;;;;;4.50;2.05;;;;;;;8.27;69.36;96097.28;5051912;28;20036;-72
2023/03/11 09:28:55;;;;;;;7.20;2.30;;;;;;;7.94;68.29;95969.16;5050278;28;20131;-74
2023/03/11 09:31:20;;;;;;;4.30;2.27;;;;;;;7.32;68.24;95851.41;5052017;28;20040;-72
2023/03/11 09:33:46;;;;;;;4.60;2.25;;;;;;;7.86;67.65;96061.78;5067342;28;20470;-72
2023/03/11 09:36:17;;;;;;;3.67;2.03;;;;;;;8.62;67.97;96404.97;5050680;28;20037;-72
2023/03/11 09:38:43;;;;;;;3.78;2.25;;;;;;;9.17;68.46;96633.56;5050041;28;20033;-72
2023/03/11 09:41:27;;;;;;;4.70;2.65;;;;;;;8.44;67.78;96317.66;5050331;28;20017;-71
2023/03/11 09:44:06;;;;;;;7.65;2.88;;;;;;;7.48;66.03;95832.88;5048052;28;20547;-72
2023/03/11 09:46:46;;;;;;;3.42;2.30;;;;;;;7.93;68.44;96418.97;5049654;28;20041;-72
2023/03/11 09:49:51;;;;;;;5.35;2.95;;;;;;;8.31;66.86;96365.91;5044760;28;20481;-74
2023/03/11 09:52:31;;;;;;;3.77;2.30;;;;;;;8.45;68.06;96582.38;5037197;28;20047;-71
2023/03/11 09:55:00;;;;;;;4.07;2.30;;;;;;;8.48;67.42;96557.16;5046076;28;20282;-72
2023/03/11 09:57:33;;;;;;;2.88;1.80;;;;;;;8.17;65.79;96225.56;5045601;28;20035;-72
2023/03/11 10:00:02;;;;;;;3.90;3.05;;;;;;;8.58;66.21;96488.94;5045180;28;20172;-74
2023/03/11 10:02:38;;;;;;;4.88;2.30;;;;;;;8.98;65.30;96508.13;5044494;28;20036;-72
2023/03/11 10:05:20;;;;;;;6.95;2.45;;;;;;;9.15;67.74;96748.22;5046021;28;20031;-74
2023/03/11 10:07:52;;;;;;;5.20;2.25;;;;;;;9.28;65.41;96614.75;5046785;28;20054;-72
2023/03/11 10:10:17;;;;;;;3.10;1.70;;;;;;;9.50;62.59;96249.94;5045289;28;20033;-72
2023/03/11 10:13:13;;;;;;;2.63;2.00;;;;;;;8.17;62.26;95681.00;5045056;28;20032;-72
2023/03/11 10:16:23;;;;;;;6.68;1.95;;;;;;;8.11;62.35;95861.88;5046733;28;20040;-74
2023/03/11 10:19:10;;;;;;;6.15;1.80;;;;;;;7.38;61.53;95531.25;5044565;28;20049;-74
2023/03/11 10:21:58;;;;;;;2.28;1.83;;;;;;;8.63;63.39;96360.56;5046969;28;20512;-71
2023/03/11 10:24:57;;;;;;;3.30;1.90;;;;;;;8.81;62.42;96316.78;5046800;28;20029;-73
2023/03/11 10:27:30;;;;;;;4.97;2.20;;;;;;;8.63;61.07;95983.06;5061391;28;20029;-71
2023/03/11 10:30:28;;;;;;;4.72;1.92;;;;;;;8.64;61.45;96110.41;5059176;28;20119;-72
2023/03/11 10:33:02;;;;;;;3.42;2.17;;;;;;;8.32;60.60;95883.94;5041897;28;20135;-73
2023/03/11 10:35:50;;;;;;;3.58;2.30;;;;;;;7.96;62.89;96235.25;5045861;28;20381;-72
2023/03/11 10:38:21;;;;;;;4.78;2.35;;;;;;;8.54;63.46;96541.00;5045607;28;20052;-72
2023/03/11 10:40:52;;;;;;;5.07;2.28;;;;;;;9.66;62.33;96747.91;5045892;28;20060;-71
2023/03/11 10:43:27;;;;;;;4.15;2.15;;;;;;;9.29;61.47;96439.91;5061542;28;20029;-73
2023/03/11 10:45:53;;;;;;;6.10;3.37;;;;;;;9.97;60.87;96551.75;5043804;28;20035;-71
2023/03/11 10:48:20;;;;;;;5.90;2.53;;;;;;;8.94;60.02;96038.91;5045189;28;20378;-73
2023/03/11 10:51:08;;;;;;;2.58;2.30;;;;;;;8.80;60.15;96070.53;5030374;28;20033;-73
2023/03/11 10:53:45;;;;;;;6.13;2.15;;;;;;;9.39;60.11;96332.69;5045455;28;20037;-73
2023/03/11 10:56:33;;;;;;;4.63;2.15;;;;;;;9.13;59.68;96116.31;5053453;28;20029;-72
2023/03/11 10:59:00;;;;;;;4.05;2.22;;;;;;;9.68;58.95;96259.25;5043883;28;20075;-75
2023/03/11 11:01:27;;;;;;;4.32;1.77;;;;;;;9.39;58.28;95979.50;5045569;28;20059;-71
2023/03/11 11:03:55;;;;;;;3.97;2.05;;;;;;;10.13;58.58;96396.19;5045393;28;20041;-72
2023/03/11 11:06:27;;;;;;;4.18;2.58;;;;;;;9.70;56.76;95859.56;5045441;28;20389;-72
2023/03/11 11:09:29;;;;;;;10.13;2.70;;;;;;;9.85;58.46;96245.66;5060293;28;20086;-72
2023/03/11 11:12:14;;;;;;;5.68;2.22;;;;;;;10.02;58.56;96296.00;5043222;28;20048;-72
2023/03/11 11:14:51;;;;;;;7.20;3.20;;;;;;;9.63;58.43;96128.78;5044160;28;20131;-72
2023/03/11 11:17:27;;;;;;;5.55;2.72;;;;;;;10.52;59.33;96720.22;5038579;28;20036;-73
2023/03/11 11:19:55;;;;;;;8.25;2.25;;;;;;;10.32;58.65;96435.66;5044821;28;20124;-72
2023/03/11 11:22:22;;;;;;;6.93;2.45;;;;;;;10.67;58.77;96588.78;5045568;28;20032;-73
2023/03/11 11:24:48;;;;;;;;;;;;;;;10.83;57.14;96392.19;5045832;28;20025;-72
2023/03/11 11:27:25;;;;;;;5.88;1.95;;;;;;;10.64;57.00;96191.91;5045207;28;20413;-74
2023/03/11 11:30:07;;;;;;;5.15;1.85;;;;;;;10.59;56.88;96232.75;5044484;28;20132;-72
2023/03/11 11:32:33;;;;;;;6.38;1.50;;;;;;;10.73;57.18;96334.31;5045197;28;20037;-73